Yellow Mule RAWS (NWS)

Jump to table bottom
Date/Time Wind Direction Wind Speed knots Wind Gust knots RH % Accumulated Precip Inches Air Temp Fahrenheit
2021-11-26 16:04 SSW 16 30 79 10.55 27
2021-11-26 15:04 SSW 21 30 87 10.55 27
2021-11-26 14:04 S 13 21 78 10.55 26
2021-11-26 13:04 SSW 14 23 75 10.55 29
2021-11-26 12:04 S 13 28 62 10.55 25
2021-11-26 11:04 S 10 22 59 10.55 28
2021-11-26 10:04 SSE 7 16 62 10.55 26
2021-11-26 09:04 SSE 7 21 67 10.55 25
2021-11-26 08:04 S 10 17 70 10.55 25
2021-11-26 07:04 SSE 8 25 69 10.55 20
2021-11-26 06:04 S 19 34 62 10.55 26
2021-11-26 05:04 S 11 23 74 10.55 19
2021-11-26 04:04 SSE 9 14 76 10.55 19
2021-11-26 03:04 S 8 19 79 10.55 17
2021-11-26 02:04 SSE 5 14 76 10.55 22
2021-11-26 01:04 S 10 17 76 10.55 18
2021-11-26 00:04 SSE 9 13 75 10.55 18
2021-11-25 23:04 S 10 13 80 10.55 17
2021-11-25 22:04 S 6 11 79 10.55 21
2021-11-25 21:04 SSE 8 11 71 10.55 23
2021-11-25 20:04 SSE 8 12 69 10.55 25
2021-11-25 19:04 S 9 11 83 10.55 21
2021-11-25 18:04 SSW 8 10 91 10.55 16
2021-11-25 17:04 SW 7 17 68 10.55 23
2021-11-25 16:04 S 12 23 68 10.55 21
2021-11-25 15:04 S 9 17 79 10.55 21
2021-11-25 14:04 S 12 17 81 10.55 20
2021-11-25 13:04 SSW 13 22 59 10.55 24
2021-11-25 12:04 S 10 17 68 10.55 20
2021-11-25 11:04 SSE 5 14 77 10.55 19
2021-11-25 10:04 S 8 19 76 10.55 16
2021-11-25 09:04 S 9 21 59 10.55 17
2021-11-25 08:04 SSW 10 16 78 10.55 14
2021-11-25 07:04 S 9 20 64 10.55 15
2021-11-25 06:04 S 8 16 67 10.55 13
2021-11-25 05:04 S 9 17 82 10.55 10
2021-11-25 04:04 S 9 26 71 10.55 11
2021-11-25 03:04 S 10 15 64 10.55 13
2021-11-25 02:04 S 3 10 81 10.55 10
2021-11-25 01:04 S 8 11 88 10.55 8
2021-11-25 00:04 SSW 6 12 72 10.55 11
2021-11-24 23:04 S 10 14 73 10.55 10
2021-11-24 22:04 S 10 15 67 10.55 11
2021-11-24 21:04 S 10 23 64 10.55 12
2021-11-24 20:04 SSW 13 22 64 10.55 12
2021-11-24 19:04 SW 15 20 70 10.55 12
2021-11-24 18:04 SW 14 21 73 10.55 11
2021-11-24 17:04 SW 16 22 76 10.55 12
2021-11-24 16:04 SW 15 21 75 10.55 13
2021-11-24 15:04 SW 14 19 76 10.55 14